Waco's Hourly Summary for Monday, July 9, 2018
Hour Temp
(f)
RH
(%)
Solar Rad.
(MJ/m2)
Rainfall
(in)
Wind
(mph)
7/9/2018 12:00 AM 76 84 0 0 2.3
7/9/2018 1:00 AM 75 86 0 0 0.58
7/9/2018 2:00 AM 74 88 0 0 0.67
7/9/2018 3:00 AM 74 89 0 0 0.69
7/9/2018 4:00 AM 74 90 0 0 1.35
7/9/2018 5:00 AM 75 89 0 0 2.53
7/9/2018 6:00 AM 74 89 0 0 1.18
7/9/2018 7:00 AM 74 90 0.03 0 1.54
7/9/2018 8:00 AM 75 86 0.26 0 1.46
7/9/2018 9:00 AM 79 72 0.74 0 1.85
7/9/2018 10:00 AM 83 61 1.19 0 3.73
7/9/2018 11:00 AM 85 57 1.36 0 3.95
7/9/2018 12:00 PM 87 45 1.87 0 2.94
7/9/2018 1:00 PM 84 55 1.47 0.01 2.67
7/9/2018 2:00 PM 90 46 2.54 0 3.77
7/9/2018 3:00 PM 92 43 2.66 0 5.26
7/9/2018 4:00 PM 92 39 1.84 0 5.7
7/9/2018 5:00 PM 88 46 1.5 0 6.82
7/9/2018 6:00 PM 90 44 2.12 0 5.95
7/9/2018 7:00 PM 89 45 1.34 0 6.77
7/9/2018 8:00 PM 86 48 0.38 0 5.87
7/9/2018 9:00 PM 82 58 0.02 0 4.11
7/9/2018 10:00 PM 79 66 0 0 2.56
7/9/2018 11:00 PM 77 73 0 0 2.31
Data Summary 81 66 19.32 0.01 3.19